Time;durP1;ratioP1;P1;durP2;ratioP2;P2;SDS_P1;SDS_P2;PMS_P1;PMS_P2;Temp;Humidity;BMP_temperature;BMP_pressure;BME280_temperature;BME280_humidity;BME280_pressure;Samples;Min_cycle;Max_cycle;Signal;HPM_P1;HPM_P2
2023/04/20 00:05:36;;;;;;;;;;;;;;;6.31;74.16;92395.69;2058172;69;20497;-75
2023/04/20 00:08:02;;;;;;;;;;;;;;;6.60;72.63;92390.03;2058159;69;20112;-76
2023/04/20 00:13:55;;;;;;;;;;;;;;;6.02;74.51;92382.47;2058968;69;20151;-75
2023/04/20 00:19:53;;;;;;;;;;;;;;;6.42;72.31;92381.09;2058304;69;20137;-77
2023/04/20 00:22:19;;;;;;;;;;;;;;;6.35;72.55;92374.34;2057876;69;20074;-79
2023/04/20 00:31:45;;;;;;;;;;;;;;;6.03;73.48;92372.75;2058366;69;20049;-78
2023/04/20 00:34:13;;;;;;;;;;;;;;;6.07;74.30;92370.25;2058285;69;20524;-80
2023/04/20 00:36:39;;;;;;;;;;;;;;;6.16;73.51;92368.78;2052156;69;20466;-76
2023/04/20 00:39:08;;;;;;;;;;;;;;;6.21;72.92;92364.94;2058474;69;20050;-79
2023/04/20 00:41:34;;;;;;;;;;;;;;;6.22;73.04;92360.81;2058391;69;20473;-77
2023/04/20 00:44:06;;;;;;;;;;;;;;;6.60;71.26;92362.06;2058069;69;20065;-78
2023/04/20 00:46:33;;;;;;;;;;;;;;;5.95;73.32;92355.41;2058504;69;20520;-78
2023/04/20 00:48:59;;;;;;;;;;;;;;;6.09;73.70;92353.66;2055017;69;20050;-77
2023/04/20 00:51:30;;;;;;;;;;;;;;;6.25;72.23;92351.25;2058192;69;20486;-77
2023/04/20 00:53:57;;;;;;;;;;;;;;;5.95;73.78;92346.28;2058154;69;20058;-79
2023/04/20 00:56:24;;;;;;;;;;;;;;;6.29;72.50;92343.16;2054934;69;20046;-77
2023/04/20 01:02:18;;;;;;;;;;;;;;;5.82;73.49;92344.69;2058259;69;20467;-78
2023/04/20 01:08:26;;;;;;;;;;;;;;;5.80;73.05;92334.06;2059863;69;20085;-78
2023/04/20 01:10:57;;;;;;;;;;;;;;;5.55;73.88;92328.81;2059636;69;20058;-78
2023/04/20 01:13:24;;;;;;;;;;;;;;;5.84;73.60;92325.97;2059015;69;20429;-76
2023/04/20 01:15:50;;;;;;;;;;;;;;;6.07;73.25;92328.34;2058303;69;20142;-79
2023/04/20 01:21:47;;;;;;;;;;;;;;;5.55;73.79;92320.41;2058469;69;20057;-79
2023/04/20 01:24:17;;;;;;;;;;;;;;;5.82;73.76;92325.13;2058053;69;20077;-79
2023/04/20 01:26:43;;;;;;;;;;;;;;;5.66;74.47;92319.09;2058309;69;20086;-78
2023/04/20 01:29:09;;;;;;;;;;;;;;;5.71;74.13;92320.13;2058019;69;20070;-77
2023/04/20 01:31:35;;;;;;;;;;;;;;;5.13;75.13;92315.22;2057806;69;20505;-77
2023/04/20 01:34:00;;;;;;;;;;;;;;;5.49;75.62;92308.78;2054480;69;20062;-79
2023/04/20 01:36:26;;;;;;;;;;;;;;;5.80;74.30;92314.53;2057867;69;20079;-76
2023/04/20 01:38:53;;;;;;;;;;;;;;;6.03;73.56;92310.56;2054691;69;20149;-78
2023/04/20 01:41:20;;;;;;;;;;;;;;;5.40;74.98;92303.94;2055108;69;20046;-77
2023/04/20 01:43:46;;;;;;;;;;;;;;;5.26;75.90;92294.53;2058542;69;20054;-78
2023/04/20 01:46:11;;;;;;;;;;;;;;;5.52;75.03;92306.91;2055392;69;20057;-77
2023/04/20 01:48:38;;;;;;;;;;;;;;;5.31;75.81;92293.50;2058487;69;20184;-77
2023/04/20 01:51:04;;;;;;;;;;;;;;;5.39;74.98;92296.16;2055291;69;20069;-77
2023/04/20 01:53:29;;;;;;;;;;;;;;;5.82;74.17;92292.34;2044967;69;20050;-76
2023/04/20 01:55:55;;;;;;;;;;;;;;;5.66;74.43;92288.38;2055181;69;20519;-78
2023/04/20 02:01:50;;;;;;;;;;;;;;;5.39;75.34;92285.00;2058480;69;20092;-77
2023/04/20 02:04:21;;;;;;;;;;;;;;;5.72;74.03;92274.09;2058808;69;20050;-80
2023/04/20 02:06:48;;;;;;;;;;;;;;;5.57;74.53;92280.72;2060400;69;20050;-77
2023/04/20 02:09:21;;;;;;;;;;;;;;;5.26;74.70;92275.72;2060795;69;20476;-79
2023/04/20 02:11:48;;;;;;;;;;;;;;;5.72;74.23;92276.88;2056012;69;20477;-77
2023/04/20 02:14:13;;;;;;;;;;;;;;;5.72;74.03;92276.88;2055270;69;20143;-73
2023/04/20 02:16:40;;;;;;;;;;;;;;;5.60;74.59;92274.72;2055195;69;20054;-76
2023/04/20 02:19:06;;;;;;;;;;;;;;;5.95;73.20;92270.84;2058562;69;20121;-78
2023/04/20 02:21:32;;;;;;;;;;;;;;;6.02;72.52;92269.97;2058473;69;20562;-78
2023/04/20 02:23:57;;;;;;;;;;;;;;;5.61;74.26;92270.59;2058222;69;20050;-78
2023/04/20 02:26:26;;;;;;;;;;;;;;;5.81;73.94;92270.56;2058725;69;20088;-75
2023/04/20 02:28:51;;;;;;;;;;;;;;;5.96;73.14;92269.56;2058813;69;20131;-78
2023/04/20 02:31:17;;;;;;;;;;;;;;;5.70;73.90;92257.22;2059541;69;20046;-78
2023/04/20 02:37:11;;;;;;;;;;;;;;;5.39;75.22;92257.09;2059264;69;20064;-78
2023/04/20 02:39:37;;;;;;;;;;;;;;;5.71;74.11;92259.41;2058609;69;20046;-76
2023/04/20 02:42:03;;;;;;;;;;;;;;;5.55;74.52;92252.69;2058400;69;20070;-78
2023/04/20 02:47:59;;;;;;;;;;;;;;;5.61;74.26;92250.31;2057829;69;20084;-76
2023/04/20 02:50:31;;;;;;;;;;;;;;;5.48;74.76;92250.75;2055110;69;20116;-76
2023/04/20 02:56:48;;;;;;;;;;;;;;;5.78;73.90;92247.34;2058059;69;20117;-77
2023/04/20 02:59:14;;;;;;;;;;;;;;;5.29;75.37;92240.34;2054888;69;20090;-78
2023/04/20 03:05:26;;;;;;;;;;;;;;;5.37;75.84;92226.25;2058091;69;20136;-78
2023/04/20 03:07:52;;;;;;;;;;;;;;;5.41;75.50;92235.66;2054898;69;20417;-78
2023/04/20 03:10:18;;;;;;;;;;;;;;;5.46;75.18;92233.88;2057705;69;20474;-78
2023/04/20 03:12:56;;;;;;;;;;;;;;;5.53;74.87;92225.31;2058206;69;20057;-75
2023/04/20 03:15:29;;;;;;;;;;;;;;;5.74;73.62;92221.91;2054882;69;20061;-78
2023/04/20 03:18:01;;;;;;;;;;;;;;;5.29;75.41;92223.59;2058046;69;20058;-72
2023/04/20 03:20:26;;;;;;;;;;;;;;;5.08;76.30;92224.91;2054845;69;20076;-73
2023/04/20 03:22:52;;;;;;;;;;;;;;;5.46;75.59;92233.88;2054879;69;20051;-77
2023/04/20 03:25:20;;;;;;;;;;;;;;;5.38;75.27;92230.50;2054964;69;20046;-77
2023/04/20 03:28:04;;;;;;;;;;;;;;;5.66;74.35;92226.94;2054773;69;20447;-77
2023/04/20 03:30:29;;;;;;;;;;;;;;;5.56;74.76;92221.38;2057606;69;20085;-77
2023/04/20 03:33:01;;;;;;;;;;;;;;;5.30;75.45;92220.22;2052153;69;20484;-77
2023/04/20 03:35:27;;;;;;;;;;;;;;;5.16;75.98;92224.03;2054970;69;20058;-74
2023/04/20 03:37:52;;;;;;;;;;;;;;;5.17;76.27;92211.53;2054866;69;20490;-78
2023/04/20 03:40:18;;;;;;;;;;;;;;;5.45;75.47;92213.59;2058198;69;20115;-77
2023/04/20 03:42:44;;;;;;;;;;;;;;;5.23;75.89;92212.72;2057786;69;20070;-73
2023/04/20 03:45:10;;;;;;;;;;;;;;;5.48;74.92;92209.63;2058428;69;20421;-74
2023/04/20 03:47:35;;;;;;;;;;;;;;;5.38;75.40;92208.91;2054861;69;20050;-74
2023/04/20 03:50:01;;;;;;;;;;;;;;;5.35;75.09;92212.84;2054842;69;20149;-72
2023/04/20 03:52:26;;;;;;;;;;;;;;;5.37;74.81;92209.50;2057987;69;20050;-73
2023/04/20 03:54:52;;;;;;;;;;;;;;;5.32;75.89;92197.31;2054962;69;20062;-78
2023/04/20 03:57:18;;;;;;;;;;;;;;;5.33;75.55;92202.28;2058410;69;20075;-79
2023/04/20 03:59:44;;;;;;;;;;;;;;;5.35;76.16;92199.63;2055169;69;20053;-78
2023/04/20 04:02:14;;;;;;;;;;;;;;;5.70;74.19;92202.09;2059400;69;20046;-77
2023/04/20 04:04:44;;;;;;;;;;;;;;;5.67;74.15;92208.84;2057308;69;20092;-79
2023/04/20 04:10:37;;;;;;;;;;;;;;;5.63;74.41;92196.66;2058266;69;20076;-79
2023/04/20 04:13:03;;;;;;;;;;;;;;;5.34;74.54;92203.03;2054822;69;20478;-76
2023/04/20 04:15:29;;;;;;;;;;;;;;;5.29;76.19;92201.25;2054740;69;20074;-79
2023/04/20 04:18:02;;;;;;;;;;;;;;;5.48;75.61;92198.44;2054847;69;20505;-77
2023/04/20 04:20:30;;;;;;;;;;;;;;;5.52;75.50;92198.00;2054906;69;20470;-74
2023/04/20 04:22:56;;;;;;;;;;;;;;;5.44;75.36;92205.81;2058118;69;20050;-74
2023/04/20 04:29:03;;;;;;;;;;;;;;;5.48;76.25;92206.81;2058197;69;20057;-79
2023/04/20 04:31:31;;;;;;;;;;;;;;;5.65;74.90;92194.75;2054526;69;20421;-76
2023/04/20 04:34:02;;;;;;;;;;;;;;;5.37;75.01;92185.09;2057596;69;20433;-76
2023/04/20 04:36:43;;;;;;;;;;;;;;;5.35;75.06;92182.16;2054772;69;20038;-74
2023/04/20 04:39:12;;;;;;;;;;;;;;;5.57;75.13;92178.16;2054747;69;20057;-77
2023/04/20 04:41:42;;;;;;;;;;;;;;;5.74;73.40;92171.66;2054700;69;20080;-75
2023/04/20 04:44:20;;;;;;;;;;;;;;;5.77;74.17;92178.84;2054701;69;20074;-76
2023/04/20 04:46:46;;;;;;;;;;;;;;;5.91;72.72;92173.50;2057907;69;20046;-77
2023/04/20 04:49:12;;;;;;;;;;;;;;;5.91;73.28;92179.09;2058261;69;20152;-75
2023/04/20 04:51:39;;;;;;;;;;;;;;;5.74;72.69;92176.50;2058106;69;20110;-76
2023/04/20 04:54:04;;;;;;;;;;;;;;;5.92;73.28;92183.38;2057537;69;20089;-78
2023/04/20 04:56:30;;;;;;;;;;;;;;;5.88;73.47;92185.13;2058057;69;20058;-73
2023/04/20 04:58:55;;;;;;;;;;;;;;;5.55;73.58;92182.88;2058206;69;20057;-74
2023/04/20 05:01:21;;;;;;;;;;;;;;;5.86;73.02;92178.09;2054810;69;20151;-72
2023/04/20 05:03:46;;;;;;;;;;;;;;;6.01;73.29;92187.47;2058027;69;20058;-80
2023/04/20 05:06:12;;;;;;;;;;;;;;;6.04;73.39;92187.00;2057866;69;20050;-80
2023/04/20 05:12:06;;;;;;;;;;;;;;;6.10;72.98;92175.53;2058178;69;20489;-73
2023/04/20 05:14:32;;;;;;;;;;;;;;;6.10;72.23;92184.63;2058168;69;20050;-77
2023/04/20 05:16:58;;;;;;;;;;;;;;;6.05;72.99;92177.31;2057959;69;20050;-79
2023/04/20 05:19:24;;;;;;;;;;;;;;;5.99;72.88;92181.72;2057970;69;20421;-79
2023/04/20 05:21:49;;;;;;;;;;;;;;;6.02;73.35;92175.69;2057987;69;20486;-79
2023/04/20 05:24:16;;;;;;;;;;;;;;;5.44;74.61;92175.81;2058057;69;20050;-78
2023/04/20 05:26:42;;;;;;;;;;;;;;;5.42;76.06;92184.06;2058032;69;20101;-79
2023/04/20 05:29:07;;;;;;;;;;;;;;;5.59;75.22;92183.16;2057708;69;20217;-79
2023/04/20 05:31:33;;;;;;;;;;;;;;;5.92;74.14;92179.88;2057739;69;20053;-78
2023/04/20 05:33:58;;;;;;;;;;;;;;;6.01;73.67;92182.63;2058046;69;20218;-78
2023/04/20 05:36:24;;;;;;;;;;;;;;;6.24;73.16;92172.97;2058104;69;20050;-76
2023/04/20 05:38:49;;;;;;;;;;;;;;;5.82;73.72;92175.00;2057837;69;20069;-76
2023/04/20 05:41:14;;;;;;;;;;;;;;;5.76;73.68;92179.44;2057887;69;20050;-75
2023/04/20 05:43:40;;;;;;;;;;;;;;;5.69;74.61;92171.97;2057831;69;20088;-74
2023/04/20 05:46:05;;;;;;;;;;;;;;;6.14;73.16;92173.00;2057775;69;20050;-78
2023/04/20 05:48:31;;;;;;;;;;;;;;;6.24;72.56;92178.56;2057678;69;20047;-79
2023/04/20 05:50:57;;;;;;;;;;;;;;;6.35;71.35;92181.41;2057996;69;20058;-79
2023/04/20 05:53:22;;;;;;;;;;;;;;;6.24;71.57;92173.69;2057925;69;20057;-79
2023/04/20 05:55:48;;;;;;;;;;;;;;;6.13;73.09;92176.38;2057862;69;20125;-78
2023/04/20 05:58:13;;;;;;;;;;;;;;;6.27;72.27;92178.06;2057918;69;20054;-79
2023/04/20 06:00:39;;;;;;;;;;;;;;;6.30;73.28;92176.88;2057964;69;20081;-78
2023/04/20 06:03:04;;;;;;;;;;;;;;;6.40;72.03;92176.84;2057859;69;20474;-78
2023/04/20 06:05:30;;;;;;;;;;;;;;;6.49;70.73;92175.31;2054604;69;20509;-77
2023/04/20 06:07:55;;;;;;;;;;;;;;;6.20;72.05;92175.47;2058035;69;20207;-78
2023/04/20 06:10:21;;;;;;;;;;;;;;;6.18;72.01;92173.25;2054596;69;20489;-77
2023/04/20 06:12:47;;;;;;;;;;;;;;;5.92;73.03;92171.47;2058847;69;20056;-74
2023/04/20 06:15:12;;;;;;;;;;;;;;;6.21;72.17;92177.66;2058331;69;20076;-78
2023/04/20 06:17:39;;;;;;;;;;;;;;;5.55;74.06;92177.28;2057948;69;20054;-79
2023/04/20 06:20:08;;;;;;;;;;;;;;;5.80;73.73;92182.50;2057939;69;20062;-79
2023/04/20 06:22:34;;;;;;;;;;;;;;;6.22;72.37;92178.41;2057945;69;20042;-79
2023/04/20 06:24:59;;;;;;;;;;;;;;;6.23;73.04;92177.06;2057799;69;20148;-78
2023/04/20 06:27:25;;;;;;;;;;;;;;;6.60;72.19;92181.00;2058122;69;20496;-78
2023/04/20 06:29:50;;;;;;;;;;;;;;;7.07;71.15;92186.88;2058507;69;20074;-79
2023/04/20 06:32:16;;;;;;;;;;;;;;;7.10;70.17;92176.53;2058426;69;20131;-79
2023/04/20 06:38:10;;;;;;;;;;;;;;;7.11;70.03;92180.81;2057756;69;20081;-72
2023/04/20 06:40:35;;;;;;;;;;;;;;;6.99;69.85;92182.81;2058335;69;20417;-78
2023/04/20 06:43:01;;;;;;;;;;;;;;;7.06;69.56;92185.41;2058365;69;20110;-72
2023/04/20 06:45:27;;;;;;;;;;;;;;;7.20;68.58;92187.66;2058351;69;20046;-76
2023/04/20 06:47:52;;;;;;;;;;;;;;;7.15;69.80;92186.66;2058286;69;20046;-73
2023/04/20 06:50:18;;;;;;;;;;;;;;;7.20;68.43;92194.00;2054768;69;20054;-74
2023/04/20 06:52:44;;;;;;;;;;;;;;;7.53;67.18;92182.78;2058404;69;20054;-76
2023/04/20 06:55:09;;;;;;;;;;;;;;;7.69;68.06;92180.28;2058422;69;20494;-74
2023/04/20 06:57:37;;;;;;;;;;;;;;;7.99;66.77;92186.31;2058301;69;20046;-75
2023/04/20 07:00:03;;;;;;;;;;;;;;;8.17;66.20;92184.63;2055164;69;20093;-78
2023/04/20 07:02:29;;;;;;;;;;;;;;;8.39;65.62;92174.81;2058250;69;20198;-74
2023/04/20 07:04:59;;;;;;;;;;;;;;;8.34;66.56;92184.28;2058297;69;20156;-78
2023/04/20 07:07:24;;;;;;;;;;;;;;;7.92;67.35;92188.00;2058340;69;20137;-79
2023/04/20 07:09:50;;;;;;;;;;;;;;;8.37;64.65;92180.28;2054868;69;20200;-72
2023/04/20 07:12:15;;;;;;;;;;;;;;;8.55;64.92;92180.63;2058289;69;20046;-74
2023/04/20 07:18:10;;;;;;;;;;;;;;;8.49;63.21;92173.94;2058564;69;20160;-77
2023/04/20 07:20:35;;;;;;;;;;;;;;;8.65;63.67;92174.88;2058422;69;20095;-78
2023/04/20 07:23:01;;;;;;;;;;;;;;;8.96;63.17;92163.38;2058432;69;20050;-77
2023/04/20 07:25:26;;;;;;;;;;;;;;;9.40;63.10;92168.00;2058431;69;20521;-78
2023/04/20 07:27:52;;;;;;;;;;;;;;;9.56;60.95;92167.44;2058628;69;20062;-78
2023/04/20 07:30:17;;;;;;;;;;;;;;;9.27;62.24;92168.66;2059053;69;20069;-78
2023/04/20 07:32:43;;;;;;;;;;;;;;;9.08;62.22;92168.97;2061225;69;20050;-73
2023/04/20 07:35:09;;;;;;;;;;;;;;;9.63;61.99;92172.78;2063199;69;20022;-76
2023/04/20 07:37:34;;;;;;;;;;;;;;;9.20;62.79;92169.66;2062270;69;20521;-74
2023/04/20 07:40:00;;;;;;;;;;;;;;;9.47;61.25;92168.34;2059286;69;20560;-77
2023/04/20 07:42:26;;;;;;;;;;;;;;;9.74;59.85;92171.28;2058730;69;20090;-78
2023/04/20 07:44:51;;;;;;;;;;;;;;;9.96;60.07;92168.22;2058513;69;20151;-78
2023/04/20 07:47:17;;;;;;;;;;;;;;;10.09;61.35;92179.50;2058173;69;20054;-78
2023/04/20 07:49:42;;;;;;;;;;;;;;;9.42;61.33;92178.63;2058179;69;20448;-78
2023/04/20 07:52:08;;;;;;;;;;;;;;;9.84;61.37;92171.81;2058278;69;20053;-76
2023/04/20 07:54:34;;;;;;;;;;;;;;;9.87;59.89;92167.78;2058172;69;20058;-76
2023/04/20 07:57:00;;;;;;;;;;;;;;;9.65;60.58;92170.09;2058290;69;20180;-74
2023/04/20 07:59:26;;;;;;;;;;;;;;;8.59;61.46;92171.72;2058261;69;20163;-74
2023/04/20 08:01:51;;;;;;;;;;;;;;;9.19;63.18;92173.09;2060102;69;20498;-76
2023/04/20 08:04:17;;;;;;;;;;;;;;;8.90;61.96;92163.03;2055529;69;20053;-74
2023/04/20 08:06:42;;;;;;;;;;;;;;;9.33;60.13;92166.19;2058329;69;20175;-75
2023/04/20 08:09:08;;;;;;;;;;;;;;;9.05;61.56;92161.78;2058267;69;20053;-77
2023/04/20 08:11:33;;;;;;;;;;;;;;;9.48;59.99;92170.53;2058224;69;20414;-78
2023/04/20 08:13:59;;;;;;;;;;;;;;;9.53;60.23;92160.25;2058336;69;20414;-79
2023/04/20 08:16:24;;;;;;;;;;;;;;;10.04;59.62;92163.78;2058162;69;20177;-81
2023/04/20 08:18:50;;;;;;;;;;;;;;;9.64;59.35;92156.66;2058311;69;20090;-81
2023/04/20 08:21:15;;;;;;;;;;;;;;;10.06;59.44;92160.34;2058273;69;20058;-74
2023/04/20 08:23:41;;;;;;;;;;;;;;;10.24;59.04;92155.72;2058159;69;20057;-77
2023/04/20 08:26:07;;;;;;;;;;;;;;;9.35;59.75;92148.75;2058241;69;20054;-75
2023/04/20 08:28:32;;;;;;;;;;;;;;;9.70;59.29;92148.56;2054529;69;20130;-75
2023/04/20 08:30:57;;;;;;;;;;;;;;;9.51;59.77;92146.09;2054900;69;20053;-72
2023/04/20 08:33:23;;;;;;;;;;;;;;;9.36;59.28;92148.13;2058137;69;20046;-72
2023/04/20 08:35:51;;;;;;;;;;;;;;;9.83;58.58;92156.31;2058028;69;20085;-77
2023/04/20 08:38:17;;;;;;;;;;;;;;;9.31;58.60;92151.31;2057902;69;20172;-76
2023/04/20 08:40:42;;;;;;;;;;;;;;;9.74;59.14;92145.97;2057786;69;20080;-81
2023/04/20 08:43:08;;;;;;;;;;;;;;;9.90;58.64;92140.50;2057622;69;20481;-75
2023/04/20 08:45:33;;;;;;;;;;;;;;;9.43;57.99;92144.28;2058078;69;20081;-81
2023/04/20 08:48:02;;;;;;;;;;;;;;;9.80;57.68;92137.88;2057895;69;20066;-81
2023/04/20 08:50:28;;;;;;;;;;;;;;;10.07;57.28;92148.47;2058097;69;20418;-82
2023/04/20 08:52:54;;;;;;;;;;;;;;;10.18;56.98;92150.47;2058175;69;20061;-74
2023/04/20 08:55:20;;;;;;;;;;;;;;;9.42;57.95;92153.34;2058240;69;20104;-72
2023/04/20 08:57:46;;;;;;;;;;;;;;;8.64;61.25;92151.00;2054957;69;20105;-72
2023/04/20 09:00:13;;;;;;;;;;;;;;;9.21;59.28;92159.16;2057971;69;20093;-74
2023/04/20 09:06:14;;;;;;;;;;;;;;;8.67;60.28;92163.81;2058197;69;20065;-79
2023/04/20 09:08:40;;;;;;;;;;;;;;;9.27;58.78;92156.69;2057973;69;20081;-81
2023/04/20 09:11:06;;;;;;;;;;;;;;;9.71;58.01;92157.72;2050541;69;20137;-74
2023/04/20 09:13:31;;;;;;;;;;;;;;;9.97;57.12;92155.63;2058033;69;20060;-73
2023/04/20 09:15:57;;;;;;;;;;;;;;;9.57;56.69;92152.03;2058022;69;20043;-73
2023/04/20 09:18:23;;;;;;;;;;;;;;;9.29;57.62;92148.38;2058221;69;20495;-72
2023/04/20 09:20:49;;;;;;;;;;;;;;;9.60;57.21;92145.19;2058166;69;20403;-81
2023/04/20 09:23:15;;;;;;;;;;;;;;;10.44;56.45;92144.78;2058242;69;20060;-79
2023/04/20 09:25:42;;;;;;;;;;;;;;;10.16;57.00;92138.38;2058450;69;20058;-79
2023/04/20 09:28:08;;;;;;;;;;;;;;;10.69;56.05;92138.34;2058452;69;20049;-84
2023/04/20 09:34:02;;;;;;;;;;;;;;;10.60;55.21;92133.66;2059542;69;20601;-80
2023/04/20 09:36:35;;;;;;;;;;;;;;;10.75;55.34;92133.03;2057974;69;20500;-79
2023/04/20 09:39:02;;;;;;;;;;;;;;;10.92;56.20;92143.03;2054756;69;20148;-76
2023/04/20 09:41:28;;;;;;;;;;;;;;;10.73;55.67;92135.75;2057906;69;20058;-78
2023/04/20 09:43:54;;;;;;;;;;;;;;;11.01;54.18;92128.00;2057792;69;20061;-77
2023/04/20 09:46:20;;;;;;;;;;;;;;;11.40;54.14;92122.16;2057899;69;20078;-79
2023/04/20 09:48:45;;;;;;;;;;;;;;;11.53;52.97;92119.91;2058151;69;20057;-78
2023/04/20 09:51:11;;;;;;;;;;;;;;;12.14;51.73;92117.91;2060489;69;20058;-79
2023/04/20 09:53:37;;;;;;;;;;;;;;;11.77;51.92;92115.44;2054735;69;20050;-79
2023/04/20 09:56:04;;;;;;;;;;;;;;;12.41;51.24;92124.72;2058069;69;20141;-81
2023/04/20 09:58:31;;;;;;;;;;;;;;;12.64;50.04;92121.50;2057990;69;20091;-81
2023/04/20 10:00:56;;;;;;;;;;;;;;;13.17;49.42;92123.06;2057752;69;20073;-80
2023/04/20 10:03:22;;;;;;;;;;;;;;;13.19;48.22;92117.47;2058484;69;20120;-77
2023/04/20 10:05:47;;;;;;;;;;;;;;;12.63;49.37;92103.13;2058449;69;20101;-81
2023/04/20 10:08:13;;;;;;;;;;;;;;;12.73;48.63;92109.19;2058678;69;20050;-79
2023/04/20 10:10:42;;;;;;;;;;;;;;;12.88;47.79;92109.84;2058496;69;20050;-78
2023/04/20 10:13:07;;;;;;;;;;;;;;;12.65;47.87;92103.22;2058448;69;20048;-82
2023/04/20 10:15:37;;;;;;;;;;;;;;;12.28;49.72;92106.53;2058737;69;20145;-84
2023/04/20 10:18:13;;;;;;;;;;;;;;;11.86;50.19;92114.47;2058274;69;20142;-83
2023/04/20 10:20:39;;;;;;;;;;;;;;;11.83;50.24;92107.31;2058604;69;20524;-83
2023/04/20 10:23:09;;;;;;;;;;;;;;;12.93;48.94;92109.34;2058276;69;20142;-85
2023/04/20 10:25:35;;;;;;;;;;;;;;;12.97;48.43;92109.53;2058573;69;20050;-83
2023/04/20 10:28:04;;;;;;;;;;;;;;;11.71;49.32;92106.69;2058281;69;20149;-78
2023/04/20 10:33:57;;;;;;;;;;;;;;;11.70;50.01;92102.41;2058482;69;20116;-83
2023/04/20 10:36:24;;;;;;;;;;;;;;;11.80;50.16;92113.44;2058626;69;20152;-82
2023/04/20 10:38:50;;;;;;;;;;;;;;;11.21;51.56;92111.34;2058279;69;20046;-82
2023/04/20 10:41:16;;;;;;;;;;;;;;;10.67;53.42;92112.88;2058393;69;20109;-85
2023/04/20 10:43:42;;;;;;;;;;;;;;;11.22;53.35;92110.00;2058320;69;20058;-79
2023/04/20 10:46:13;;;;;;;;;;;;;;;12.04;50.95;92097.66;2058364;69;20505;-81
2023/04/20 10:48:48;;;;;;;;;;;;;;;11.31;51.02;92099.84;2058359;69;20046;-79
2023/04/20 10:51:13;;;;;;;;;;;;;;;12.41;49.99;92091.56;2050339;69;20493;-80
2023/04/20 10:53:39;;;;;;;;;;;;;;;12.88;49.06;92087.97;2058519;69;20170;-81
2023/04/20 10:56:04;;;;;;;;;;;;;;;12.82;48.91;92084.13;2058545;69;20200;-81
2023/04/20 10:58:30;;;;;;;;;;;;;;;11.20;50.91;92087.38;2058345;69;20070;-82
2023/04/20 11:00:56;;;;;;;;;;;;;;;10.87;53.00;92076.59;2058242;69;20077;-77
2023/04/20 11:03:21;;;;;;;;;;;;;;;11.49;52.36;92077.44;2058433;69;20060;-82
2023/04/20 11:05:49;;;;;;;;;;;;;;;11.90;51.43;92075.19;2058495;69;20145;-83
2023/04/20 11:08:14;;;;;;;;;;;;;;;12.18;50.40;92072.19;2055126;69;20158;-82
2023/04/20 11:14:09;;;;;;;;;;;;;;;13.23;48.67;92072.44;2049712;69;20046;-82
2023/04/20 11:16:35;;;;;;;;;;;;;;;13.10;48.73;92070.47;2058259;69;20050;-79
2023/04/20 11:19:00;;;;;;;;;;;;;;;13.04;48.38;92070.22;2058317;69;20132;-81
2023/04/20 11:21:36;;;;;;;;;;;;;;;13.68;47.41;92069.31;2058447;69;20050;-81
2023/04/20 11:24:01;;;;;;;;;;;;;;;13.68;46.70;92072.16;2058398;69;20128;-80
2023/04/20 11:26:34;;;;;;;;;;;;;;;13.68;45.93;92058.00;2058375;69;20061;-78
2023/04/20 11:32:27;;;;;;;;;;;;;;;14.35;45.64;92064.75;2058316;69;20116;-82
2023/04/20 11:35:00;;;;;;;;;;;;;;;13.97;46.63;92071.16;2058440;69;20058;-84
2023/04/20 11:37:27;;;;;;;;;;;;;;;14.13;45.41;92064.66;2058347;69;20046;-79
2023/04/20 11:39:59;;;;;;;;;;;;;;;14.09;45.23;92061.66;2059485;69;20057;-82
2023/04/20 11:42:25;;;;;;;;;;;;;;;13.69;44.87;92059.44;2058969;69;20061;-84
2023/04/20 11:44:51;;;;;;;;;;;;;;;12.97;47.00;92052.31;2055319;69;20421;-83
2023/04/20 11:47:17;;;;;;;;;;;;;;;13.22;46.51;92056.88;2058222;69;20050;-83
2023/04/20 11:49:42;;;;;;;;;;;;;;;13.11;46.52;92043.69;2058365;69;20058;-79
2023/04/20 11:52:08;;;;;;;;;;;;;;;13.23;46.59;92039.25;2058333;69;20153;-73
2023/04/20 11:58:02;;;;;;;;;;;;;;;13.73;46.12;92051.13;2058439;69;20085;-83
2023/04/20 12:00:28;;;;;;;;;;;;;;;14.12;45.34;92049.06;2058320;69;20109;-84
2023/04/20 12:02:53;;;;;;;;;;;;;;;13.59;46.06;92053.41;2058025;69;20482;-81
2023/04/20 12:05:19;;;;;;;;;;;;;;;13.84;44.96;92043.06;2058350;69;20054;-78
2023/04/20 12:07:45;;;;;;;;;;;;;;;14.35;45.44;92042.09;2058375;69;20081;-81
2023/04/20 12:10:10;;;;;;;;;;;;;;;14.98;43.49;92033.00;2058389;69;20092;-84
2023/04/20 12:12:37;;;;;;;;;;;;;;;14.62;44.23;92035.31;2058338;69;20399;-80
2023/04/20 12:15:03;;;;;;;;;;;;;;;15.14;44.91;92039.22;2058236;69;20157;-79
2023/04/20 12:17:28;;;;;;;;;;;;;;;14.29;44.56;92028.44;2058290;69;20579;-80
2023/04/20 12:23:22;;;;;;;;;;;;;;;14.33;45.90;92022.91;2058041;69;20493;-81
2023/04/20 12:25:48;;;;;;;;;;;;;;;14.09;45.89;92019.94;2057980;69;20114;-81
2023/04/20 12:28:13;;;;;;;;;;;;;;;14.10;45.57;92021.38;2058163;69;20482;-81
2023/04/20 12:30:39;;;;;;;;;;;;;;;14.30;45.01;92021.41;2058254;69;20050;-81
2023/04/20 12:33:04;;;;;;;;;;;;;;;12.33;48.80;92020.66;2057983;69;20505;-79
2023/04/20 12:35:30;;;;;;;;;;;;;;;13.54;46.69;92017.13;2058257;69;20069;-80
2023/04/20 12:37:55;;;;;;;;;;;;;;;13.75;45.50;92019.38;2058017;69;20506;-81
2023/04/20 12:40:21;;;;;;;;;;;;;;;14.14;45.42;92021.53;2058088;69;20058;-81
2023/04/20 12:42:47;;;;;;;;;;;;;;;13.74;45.90;92023.56;2058135;69;20046;-81
2023/04/20 12:45:12;;;;;;;;;;;;;;;13.06;47.06;92016.63;2058477;69;20050;-80
2023/04/20 12:47:37;;;;;;;;;;;;;;;14.29;45.84;92019.22;2060722;69;20076;-74
2023/04/20 12:50:03;;;;;;;;;;;;;;;12.94;47.43;92011.94;2062380;69;20093;-79
2023/04/20 12:52:28;;;;;;;;;;;;;;;13.89;46.10;92002.22;2060330;69;20580;-80
2023/04/20 12:54:54;;;;;;;;;;;;;;;14.38;45.57;92020.97;2058704;69;20513;-78
2023/04/20 12:57:19;;;;;;;;;;;;;;;13.98;46.52;92023.78;2058297;69;20514;-77
2023/04/20 12:59:47;;;;;;;;;;;;;;;13.52;46.69;92025.56;2058292;69;20050;-79
2023/04/20 13:02:13;;;;;;;;;;;;;;;13.82;46.59;92023.16;2057952;69;20482;-80
2023/04/20 13:04:38;;;;;;;;;;;;;;;14.80;45.17;92018.19;2058057;69;20049;-80
2023/04/20 13:07:04;;;;;;;;;;;;;;;15.74;44.34;92028.41;2058231;69;20458;-78
2023/04/20 13:09:30;;;;;;;;;;;;;;;19.74;37.47;92029.34;2054859;69;20085;-80
2023/04/20 13:11:56;;;;;;;;;;;;;;;18.89;38.56;92030.69;2057791;69;20053;-82
2023/04/20 13:14:22;;;;;;;;;;;;;;;17.66;39.11;92024.41;2057933;69;20060;-74
2023/04/20 13:16:47;;;;;;;;;;;;;;;16.35;41.29;92023.81;2057946;69;20051;-74
2023/04/20 13:19:13;;;;;;;;;;;;;;;16.64;40.90;92027.47;2058122;69;20406;-78
2023/04/20 13:21:38;;;;;;;;;;;;;;;14.68;44.03;92027.75;2058239;69;20425;-78
2023/04/20 13:24:04;;;;;;;;;;;;;;;14.82;43.36;92021.13;2054820;69;20474;-78
2023/04/20 13:26:30;;;;;;;;;;;;;;;15.10;43.34;92024.19;2058320;69;20113;-79
2023/04/20 13:28:57;;;;;;;;;;;;;;;15.23;43.60;92017.53;2056192;69;20379;-75
2023/04/20 13:31:23;;;;;;;;;;;;;;;17.78;40.28;92016.19;2060016;69;20080;-75
2023/04/20 13:33:53;;;;;;;;;;;;;;;22.06;34.04;92028.56;2058498;69;20090;-80
2023/04/20 13:36:19;;;;;;;;;;;;;;;19.59;35.65;92029.78;2058422;69;20223;-79
2023/04/20 13:38:46;;;;;;;;;;;;;;;20.06;35.47;92022.69;2058619;69;20058;-79
2023/04/20 13:41:11;;;;;;;;;;;;;;;22.12;33.60;92018.59;2058676;69;20061;-79
2023/04/20 13:43:36;;;;;;;;;;;;;;;19.24;37.14;92012.81;2058468;69;20378;-82
2023/04/20 13:46:02;;;;;;;;;;;;;;;21.34;35.43;92020.03;2058342;69;20056;-79
2023/04/20 13:48:27;;;;;;;;;;;;;;;19.96;34.70;92011.84;2058147;69;20138;-81
2023/04/20 13:50:53;;;;;;;;;;;;;;;21.01;34.18;92017.53;2058359;69;20050;-81
2023/04/20 13:53:18;;;;;;;;;;;;;;;21.24;32.49;92012.78;2058526;69;20049;-81
2023/04/20 13:55:44;;;;;;;;;;;;;;;21.12;33.18;92000.47;2058398;69;20109;-82
2023/04/20 13:58:09;;;;;;;;;;;;;;;19.55;34.32;91996.19;2058369;69;20046;-81
2023/04/20 14:00:35;;;;;;;;;;;;;;;20.64;33.37;91987.78;2058320;69;20153;-81
2023/04/20 14:03:00;;;;;;;;;;;;;;;20.69;34.12;91994.28;2058348;69;20179;-81
2023/04/20 14:05:26;;;;;;;;;;;;;;;22.03;32.84;91986.97;2058399;69;20428;-81
2023/04/20 14:07:51;;;;;;;;;;;;;;;23.66;30.20;91986.97;2058398;69;20506;-79
2023/04/20 14:10:17;;;;;;;;;;;;;;;19.17;34.74;91984.84;2054966;69;20058;-81
2023/04/20 14:12:42;;;;;;;;;;;;;;;17.68;37.32;91991.00;2058387;69;20496;-81
2023/04/20 14:15:08;;;;;;;;;;;;;;;18.38;37.79;91984.75;2058529;69;20453;-80
2023/04/20 14:17:33;;;;;;;;;;;;;;;16.93;38.83;91975.69;2058177;69;20069;-80